sensor_id;sensor_type;location;lat;lon;timestamp;P1;durP1;ratioP1;P2;durP2;ratioP2
46210;SDS011;52144;48.040;-1.594;2022-10-16T00:01:34;4.20;;;2.20;;
46210;SDS011;52144;48.040;-1.594;2022-10-16T00:04:02;2.63;;;1.85;;
46210;SDS011;52144;48.040;-1.594;2022-10-16T00:06:31;2.90;;;1.80;;
46210;SDS011;52144;48.040;-1.594;2022-10-16T00:08:59;1.65;;;1.42;;
46210;SDS011;52144;48.040;-1.594;2022-10-16T00:11:29;2.30;;;1.42;;
46210;SDS011;52144;48.040;-1.594;2022-10-16T00:14:00;4.15;;;1.73;;
46210;SDS011;52144;48.040;-1.594;2022-10-16T00:16:30;7.22;;;2.47;;
46210;SDS011;52144;48.040;-1.594;2022-10-16T00:18:58;7.15;;;2.83;;
46210;SDS011;52144;48.040;-1.594;2022-10-16T00:21:27;2.88;;;1.70;;
46210;SDS011;52144;48.040;-1.594;2022-10-16T00:23:56;3.40;;;2.33;;
46210;SDS011;52144;48.040;-1.594;2022-10-16T00:26:26;6.50;;;3.22;;
46210;SDS011;52144;48.040;-1.594;2022-10-16T00:28:57;3.60;;;2.33;;
46210;SDS011;52144;48.040;-1.594;2022-10-16T00:31:25;3.30;;;2.17;;
46210;SDS011;52144;48.040;-1.594;2022-10-16T00:33:53;5.65;;;2.33;;
46210;SDS011;52144;48.040;-1.594;2022-10-16T00:36:22;3.03;;;2.38;;
46210;SDS011;52144;48.040;-1.594;2022-10-16T00:38:51;5.95;;;2.92;;
46210;SDS011;52144;48.040;-1.594;2022-10-16T00:41:21;4.93;;;2.05;;
46210;SDS011;52144;48.040;-1.594;2022-10-16T00:43:52;5.63;;;1.88;;
46210;SDS011;52144;48.040;-1.594;2022-10-16T00:46:21;3.63;;;1.73;;
46210;SDS011;52144;48.040;-1.594;2022-10-16T00:48:52;3.65;;;1.80;;
46210;SDS011;52144;48.040;-1.594;2022-10-16T00:51:28;2.78;;;2.50;;
46210;SDS011;52144;48.040;-1.594;2022-10-16T00:53:59;6.20;;;2.42;;
46210;SDS011;52144;48.040;-1.594;2022-10-16T00:56:29;4.93;;;2.10;;
46210;SDS011;52144;48.040;-1.594;2022-10-16T00:58:58;6.25;;;1.70;;
46210;SDS011;52144;48.040;-1.594;2022-10-16T01:01:30;2.28;;;1.33;;
46210;SDS011;52144;48.040;-1.594;2022-10-16T01:03:58;5.03;;;2.40;;
46210;SDS011;52144;48.040;-1.594;2022-10-16T01:06:28;6.18;;;1.45;;
46210;SDS011;52144;48.040;-1.594;2022-10-16T01:09:06;3.22;;;1.40;;
46210;SDS011;52144;48.040;-1.594;2022-10-16T01:11:44;3.35;;;1.90;;
46210;SDS011;52144;48.040;-1.594;2022-10-16T01:14:19;5.05;;;1.52;;
46210;SDS011;52144;48.040;-1.594;2022-10-16T01:16:55;2.83;;;1.80;;
46210;SDS011;52144;48.040;-1.594;2022-10-16T01:19:33;5.45;;;1.88;;
46210;SDS011;52144;48.040;-1.594;2022-10-16T01:22:12;2.97;;;1.73;;
46210;SDS011;52144;48.040;-1.594;2022-10-16T01:24:41;3.05;;;2.15;;
46210;SDS011;52144;48.040;-1.594;2022-10-16T01:27:19;4.05;;;1.98;;
46210;SDS011;52144;48.040;-1.594;2022-10-16T01:29:52;2.67;;;2.33;;
46210;SDS011;52144;48.040;-1.594;2022-10-16T01:32:24;5.13;;;2.17;;
46210;SDS011;52144;48.040;-1.594;2022-10-16T01:34:59;4.15;;;1.42;;
46210;SDS011;52144;48.040;-1.594;2022-10-16T01:40:03;5.05;;;1.63;;
46210;SDS011;52144;48.040;-1.594;2022-10-16T01:42:37;1.88;;;1.35;;
46210;SDS011;52144;48.040;-1.594;2022-10-16T01:45:07;2.72;;;1.90;;
46210;SDS011;52144;48.040;-1.594;2022-10-16T01:47:39;2.97;;;1.70;;
46210;SDS011;52144;48.040;-1.594;2022-10-16T01:50:09;5.00;;;1.38;;
46210;SDS011;52144;48.040;-1.594;2022-10-16T01:52:40;3.53;;;1.98;;
46210;SDS011;52144;48.040;-1.594;2022-10-16T01:55:12;3.37;;;2.23;;
46210;SDS011;52144;48.040;-1.594;2022-10-16T01:57:47;5.07;;;1.85;;
46210;SDS011;52144;48.040;-1.594;2022-10-16T02:00:19;2.17;;;1.38;;
46210;SDS011;52144;48.040;-1.594;2022-10-16T02:02:49;2.95;;;2.00;;
46210;SDS011;52144;48.040;-1.594;2022-10-16T02:05:22;4.47;;;2.30;;
46210;SDS011;52144;48.040;-1.594;2022-10-16T02:07:53;4.05;;;2.15;;
46210;SDS011;52144;48.040;-1.594;2022-10-16T02:10:22;2.83;;;2.00;;
46210;SDS011;52144;48.040;-1.594;2022-10-16T02:12:55;4.45;;;2.50;;
46210;SDS011;52144;48.040;-1.594;2022-10-16T02:15:26;1.60;;;1.40;;
46210;SDS011;52144;48.040;-1.594;2022-10-16T02:17:54;3.08;;;1.75;;
46210;SDS011;52144;48.040;-1.594;2022-10-16T02:20:24;3.15;;;2.13;;
46210;SDS011;52144;48.040;-1.594;2022-10-16T02:22:54;2.97;;;1.70;;
46210;SDS011;52144;48.040;-1.594;2022-10-16T02:25:24;4.10;;;1.35;;
46210;SDS011;52144;48.040;-1.594;2022-10-16T02:28:00;2.60;;;1.70;;
46210;SDS011;52144;48.040;-1.594;2022-10-16T02:30:32;1.98;;;1.52;;
46210;SDS011;52144;48.040;-1.594;2022-10-16T02:33:03;5.10;;;1.80;;
46210;SDS011;52144;48.040;-1.594;2022-10-16T02:35:34;5.43;;;1.60;;
46210;SDS011;52144;48.040;-1.594;2022-10-16T02:38:03;7.20;;;1.83;;
46210;SDS011;52144;48.040;-1.594;2022-10-16T02:40:31;4.25;;;2.22;;
46210;SDS011;52144;48.040;-1.594;2022-10-16T02:43:02;5.85;;;2.03;;
46210;SDS011;52144;48.040;-1.594;2022-10-16T02:45:31;6.05;;;2.08;;
46210;SDS011;52144;48.040;-1.594;2022-10-16T02:47:59;2.50;;;1.73;;
46210;SDS011;52144;48.040;-1.594;2022-10-16T02:50:27;2.65;;;1.83;;
46210;SDS011;52144;48.040;-1.594;2022-10-16T02:52:54;4.53;;;2.40;;
46210;SDS011;52144;48.040;-1.594;2022-10-16T02:55:22;3.47;;;2.13;;
46210;SDS011;52144;48.040;-1.594;2022-10-16T02:57:50;3.95;;;2.15;;
46210;SDS011;52144;48.040;-1.594;2022-10-16T03:00:20;2.60;;;1.80;;
46210;SDS011;52144;48.040;-1.594;2022-10-16T03:02:48;1.88;;;1.40;;
46210;SDS011;52144;48.040;-1.594;2022-10-16T03:05:15;10.68;;;3.35;;
46210;SDS011;52144;48.040;-1.594;2022-10-16T03:07:43;4.10;;;2.03;;
46210;SDS011;52144;48.040;-1.594;2022-10-16T03:10:11;15.57;;;2.90;;
46210;SDS011;52144;48.040;-1.594;2022-10-16T03:12:39;4.22;;;2.38;;
46210;SDS011;52144;48.040;-1.594;2022-10-16T03:15:07;6.22;;;1.70;;
46210;SDS011;52144;48.040;-1.594;2022-10-16T03:17:38;4.13;;;1.77;;
46210;SDS011;52144;48.040;-1.594;2022-10-16T03:20:06;3.33;;;2.08;;
46210;SDS011;52144;48.040;-1.594;2022-10-16T03:22:34;3.08;;;1.73;;
46210;SDS011;52144;48.040;-1.594;2022-10-16T03:25:02;2.83;;;1.83;;
46210;SDS011;52144;48.040;-1.594;2022-10-16T03:27:30;6.00;;;2.42;;
46210;SDS011;52144;48.040;-1.594;2022-10-16T03:29:58;2.88;;;2.05;;
46210;SDS011;52144;48.040;-1.594;2022-10-16T03:32:25;4.93;;;2.03;;
46210;SDS011;52144;48.040;-1.594;2022-10-16T03:34:56;7.07;;;1.50;;
46210;SDS011;52144;48.040;-1.594;2022-10-16T03:37:23;3.58;;;2.00;;
46210;SDS011;52144;48.040;-1.594;2022-10-16T03:39:52;4.43;;;2.35;;
46210;SDS011;52144;48.040;-1.594;2022-10-16T03:42:20;3.13;;;1.90;;
46210;SDS011;52144;48.040;-1.594;2022-10-16T03:44:47;7.78;;;1.67;;
46210;SDS011;52144;48.040;-1.594;2022-10-16T03:47:15;2.85;;;1.83;;
46210;SDS011;52144;48.040;-1.594;2022-10-16T03:49:47;1.70;;;1.08;;
46210;SDS011;52144;48.040;-1.594;2022-10-16T03:52:16;6.75;;;1.83;;
46210;SDS011;52144;48.040;-1.594;2022-10-16T03:54:49;8.68;;;1.45;;
46210;SDS011;52144;48.040;-1.594;2022-10-16T03:57:16;2.85;;;1.63;;
46210;SDS011;52144;48.040;-1.594;2022-10-16T03:59:44;4.57;;;2.13;;
46210;SDS011;52144;48.040;-1.594;2022-10-16T04:02:12;2.80;;;1.88;;
46210;SDS011;52144;48.040;-1.594;2022-10-16T04:04:40;2.65;;;2.08;;
46210;SDS011;52144;48.040;-1.594;2022-10-16T04:07:08;12.02;;;2.20;;
46210;SDS011;52144;48.040;-1.594;2022-10-16T04:09:37;2.35;;;1.50;;
46210;SDS011;52144;48.040;-1.594;2022-10-16T04:12:05;6.95;;;2.05;;
46210;SDS011;52144;48.040;-1.594;2022-10-16T04:14:32;3.88;;;1.70;;
46210;SDS011;52144;48.040;-1.594;2022-10-16T04:17:00;4.40;;;2.20;;
46210;SDS011;52144;48.040;-1.594;2022-10-16T04:19:28;7.55;;;2.40;;
46210;SDS011;52144;48.040;-1.594;2022-10-16T04:21:56;2.50;;;1.83;;
46210;SDS011;52144;48.040;-1.594;2022-10-16T04:24:23;3.92;;;2.03;;
46210;SDS011;52144;48.040;-1.594;2022-10-16T04:26:52;4.47;;;1.67;;
46210;SDS011;52144;48.040;-1.594;2022-10-16T04:29:20;3.35;;;1.70;;
46210;SDS011;52144;48.040;-1.594;2022-10-16T04:31:48;3.60;;;1.85;;
46210;SDS011;52144;48.040;-1.594;2022-10-16T04:34:16;7.75;;;1.70;;
46210;SDS011;52144;48.040;-1.594;2022-10-16T04:36:43;10.80;;;3.10;;
46210;SDS011;52144;48.040;-1.594;2022-10-16T04:39:13;3.13;;;1.88;;
46210;SDS011;52144;48.040;-1.594;2022-10-16T04:41:41;2.38;;;1.73;;
46210;SDS011;52144;48.040;-1.594;2022-10-16T04:44:10;3.95;;;1.52;;
46210;SDS011;52144;48.040;-1.594;2022-10-16T04:46:38;5.57;;;1.73;;
46210;SDS011;52144;48.040;-1.594;2022-10-16T04:49:06;2.20;;;1.52;;
46210;SDS011;52144;48.040;-1.594;2022-10-16T04:51:33;4.97;;;2.28;;
46210;SDS011;52144;48.040;-1.594;2022-10-16T04:54:01;4.30;;;2.47;;
46210;SDS011;52144;48.040;-1.594;2022-10-16T04:56:29;6.15;;;1.83;;
46210;SDS011;52144;48.040;-1.594;2022-10-16T04:58:57;3.92;;;2.17;;
46210;SDS011;52144;48.040;-1.594;2022-10-16T05:01:26;6.85;;;3.05;;
46210;SDS011;52144;48.040;-1.594;2022-10-16T05:03:53;4.78;;;2.38;;
46210;SDS011;52144;48.040;-1.594;2022-10-16T05:06:21;3.60;;;2.50;;
46210;SDS011;52144;48.040;-1.594;2022-10-16T05:08:49;2.08;;;1.58;;
46210;SDS011;52144;48.040;-1.594;2022-10-16T05:11:16;2.22;;;1.85;;
46210;SDS011;52144;48.040;-1.594;2022-10-16T05:13:44;1.88;;;1.38;;
46210;SDS011;52144;48.040;-1.594;2022-10-16T05:16:15;6.95;;;1.67;;
46210;SDS011;52144;48.040;-1.594;2022-10-16T05:18:44;2.40;;;1.67;;
46210;SDS011;52144;48.040;-1.594;2022-10-16T05:21:12;9.35;;;2.83;;
46210;SDS011;52144;48.040;-1.594;2022-10-16T05:23:39;6.65;;;2.70;;
46210;SDS011;52144;48.040;-1.594;2022-10-16T05:26:07;3.30;;;1.98;;
46210;SDS011;52144;48.040;-1.594;2022-10-16T05:28:35;5.25;;;2.28;;
46210;SDS011;52144;48.040;-1.594;2022-10-16T05:31:04;3.03;;;1.55;;
46210;SDS011;52144;48.040;-1.594;2022-10-16T05:33:32;2.55;;;1.80;;
46210;SDS011;52144;48.040;-1.594;2022-10-16T05:36:02;3.88;;;2.20;;
46210;SDS011;52144;48.040;-1.594;2022-10-16T05:38:30;3.53;;;1.75;;
46210;SDS011;52144;48.040;-1.594;2022-10-16T05:40:58;4.65;;;2.08;;
46210;SDS011;52144;48.040;-1.594;2022-10-16T05:43:26;2.03;;;1.77;;
46210;SDS011;52144;48.040;-1.594;2022-10-16T05:45:55;4.82;;;2.72;;
46210;SDS011;52144;48.040;-1.594;2022-10-16T05:48:23;3.67;;;2.45;;
46210;SDS011;52144;48.040;-1.594;2022-10-16T05:50:57;3.88;;;1.67;;
46210;SDS011;52144;48.040;-1.594;2022-10-16T05:53:28;4.35;;;1.73;;
46210;SDS011;52144;48.040;-1.594;2022-10-16T05:55:57;7.55;;;3.20;;
46210;SDS011;52144;48.040;-1.594;2022-10-16T05:58:27;6.35;;;2.75;;
46210;SDS011;52144;48.040;-1.594;2022-10-16T06:00:57;5.03;;;2.30;;
46210;SDS011;52144;48.040;-1.594;2022-10-16T06:03:26;3.42;;;2.08;;
46210;SDS011;52144;48.040;-1.594;2022-10-16T06:05:54;4.20;;;2.45;;
46210;SDS011;52144;48.040;-1.594;2022-10-16T06:08:22;5.38;;;2.97;;
46210;SDS011;52144;48.040;-1.594;2022-10-16T06:11:01;6.18;;;3.20;;
46210;SDS011;52144;48.040;-1.594;2022-10-16T06:13:29;5.35;;;2.75;;
46210;SDS011;52144;48.040;-1.594;2022-10-16T06:15:57;15.07;;;2.92;;
46210;SDS011;52144;48.040;-1.594;2022-10-16T06:18:27;5.18;;;2.42;;
46210;SDS011;52144;48.040;-1.594;2022-10-16T06:20:55;3.63;;;2.20;;
46210;SDS011;52144;48.040;-1.594;2022-10-16T06:23:24;4.75;;;2.17;;
46210;SDS011;52144;48.040;-1.594;2022-10-16T06:25:52;4.35;;;2.35;;
46210;SDS011;52144;48.040;-1.594;2022-10-16T06:28:22;4.32;;;2.13;;
46210;SDS011;52144;48.040;-1.594;2022-10-16T06:30:49;6.85;;;2.45;;
46210;SDS011;52144;48.040;-1.594;2022-10-16T06:33:32;9.00;;;3.20;;
46210;SDS011;52144;48.040;-1.594;2022-10-16T06:36:00;4.10;;;1.90;;
46210;SDS011;52144;48.040;-1.594;2022-10-16T06:38:29;5.18;;;2.17;;
46210;SDS011;52144;48.040;-1.594;2022-10-16T06:40:57;6.05;;;2.22;;
46210;SDS011;52144;48.040;-1.594;2022-10-16T06:43:27;4.03;;;2.17;;
46210;SDS011;52144;48.040;-1.594;2022-10-16T06:45:59;4.85;;;2.55;;
46210;SDS011;52144;48.040;-1.594;2022-10-16T06:48:27;5.13;;;1.92;;
46210;SDS011;52144;48.040;-1.594;2022-10-16T06:50:57;2.72;;;2.00;;
46210;SDS011;52144;48.040;-1.594;2022-10-16T06:53:26;5.10;;;2.63;;
46210;SDS011;52144;48.040;-1.594;2022-10-16T06:56:14;2.65;;;1.52;;
46210;SDS011;52144;48.040;-1.594;2022-10-16T06:58:45;2.30;;;1.50;;
46210;SDS011;52144;48.040;-1.594;2022-10-16T07:01:13;2.50;;;1.60;;
46210;SDS011;52144;48.040;-1.594;2022-10-16T07:03:43;4.30;;;1.65;;
46210;SDS011;52144;48.040;-1.594;2022-10-16T07:06:12;2.28;;;1.40;;
46210;SDS011;52144;48.040;-1.594;2022-10-16T07:08:41;2.13;;;1.30;;
46210;SDS011;52144;48.040;-1.594;2022-10-16T07:11:11;2.40;;;1.10;;
46210;SDS011;52144;48.040;-1.594;2022-10-16T07:13:41;1.75;;;1.30;;
46210;SDS011;52144;48.040;-1.594;2022-10-16T07:16:13;1.83;;;1.23;;
46210;SDS011;52144;48.040;-1.594;2022-10-16T07:18:42;1.25;;;1.13;;
46210;SDS011;52144;48.040;-1.594;2022-10-16T07:21:12;2.42;;;1.27;;
46210;SDS011;52144;48.040;-1.594;2022-10-16T07:23:42;0.73;;;0.68;;
46210;SDS011;52144;48.040;-1.594;2022-10-16T07:26:10;0.93;;;0.88;;
46210;SDS011;52144;48.040;-1.594;2022-10-16T07:28:38;1.52;;;0.98;;
46210;SDS011;52144;48.040;-1.594;2022-10-16T07:31:07;1.63;;;0.90;;
46210;SDS011;52144;48.040;-1.594;2022-10-16T07:33:39;2.15;;;0.73;;
46210;SDS011;52144;48.040;-1.594;2022-10-16T07:36:09;2.33;;;1.27;;
46210;SDS011;52144;48.040;-1.594;2022-10-16T07:38:41;1.60;;;1.07;;
46210;SDS011;52144;48.040;-1.594;2022-10-16T07:41:10;1.42;;;1.08;;
46210;SDS011;52144;48.040;-1.594;2022-10-16T07:43:39;1.55;;;0.90;;
46210;SDS011;52144;48.040;-1.594;2022-10-16T07:46:07;0.95;;;0.95;;
46210;SDS011;52144;48.040;-1.594;2022-10-16T07:48:34;2.10;;;0.82;;
46210;SDS011;52144;48.040;-1.594;2022-10-16T07:51:04;2.72;;;1.15;;
46210;SDS011;52144;48.040;-1.594;2022-10-16T07:53:33;3.08;;;1.08;;
46210;SDS011;52144;48.040;-1.594;2022-10-16T07:56:01;3.70;;;1.17;;
46210;SDS011;52144;48.040;-1.594;2022-10-16T07:58:32;2.75;;;2.33;;
46210;SDS011;52144;48.040;-1.594;2022-10-16T08:01:04;2.80;;;0.90;;
46210;SDS011;52144;48.040;-1.594;2022-10-16T08:03:33;0.60;;;0.60;;
46210;SDS011;52144;48.040;-1.594;2022-10-16T08:06:01;0.47;;;0.43;;
46210;SDS011;52144;48.040;-1.594;2022-10-16T08:08:31;0.82;;;0.60;;
46210;SDS011;52144;48.040;-1.594;2022-10-16T08:10:59;4.07;;;1.10;;
46210;SDS011;52144;48.040;-1.594;2022-10-16T08:13:29;0.77;;;0.77;;
46210;SDS011;52144;48.040;-1.594;2022-10-16T08:15:57;2.70;;;0.85;;
46210;SDS011;52144;48.040;-1.594;2022-10-16T08:18:25;0.68;;;0.50;;
46210;SDS011;52144;48.040;-1.594;2022-10-16T08:20:56;0.80;;;0.80;;
46210;SDS011;52144;48.040;-1.594;2022-10-16T08:23:24;2.38;;;0.80;;
46210;SDS011;52144;48.040;-1.594;2022-10-16T08:25:54;1.45;;;0.75;;
46210;SDS011;52144;48.040;-1.594;2022-10-16T08:28:23;2.15;;;0.73;;
46210;SDS011;52144;48.040;-1.594;2022-10-16T08:30:51;1.42;;;0.55;;
46210;SDS011;52144;48.040;-1.594;2022-10-16T08:33:19;4.57;;;1.08;;
46210;SDS011;52144;48.040;-1.594;2022-10-16T08:35:52;3.13;;;0.52;;
46210;SDS011;52144;48.040;-1.594;2022-10-16T08:38:20;0.80;;;0.77;;
46210;SDS011;52144;48.040;-1.594;2022-10-16T08:40:48;0.70;;;0.70;;
46210;SDS011;52144;48.040;-1.594;2022-10-16T08:43:30;1.17;;;0.70;;
46210;SDS011;52144;48.040;-1.594;2022-10-16T08:46:18;0.55;;;0.55;;
46210;SDS011;52144;48.040;-1.594;2022-10-16T08:48:58;2.65;;;0.77;;
46210;SDS011;52144;48.040;-1.594;2022-10-16T08:51:28;6.25;;;0.70;;
46210;SDS011;52144;48.040;-1.594;2022-10-16T08:53:59;4.32;;;0.77;;
46210;SDS011;52144;48.040;-1.594;2022-10-16T08:56:30;3.38;;;0.98;;
46210;SDS011;52144;48.040;-1.594;2022-10-16T08:59:00;2.13;;;0.85;;
46210;SDS011;52144;48.040;-1.594;2022-10-16T09:01:33;4.78;;;1.17;;
46210;SDS011;52144;48.040;-1.594;2022-10-16T09:04:14;0.60;;;0.50;;
46210;SDS011;52144;48.040;-1.594;2022-10-16T09:07:01;1.17;;;0.57;;
46210;SDS011;52144;48.040;-1.594;2022-10-16T09:09:40;1.73;;;0.70;;
46210;SDS011;52144;48.040;-1.594;2022-10-16T09:12:22;0.95;;;0.57;;
46210;SDS011;52144;48.040;-1.594;2022-10-16T09:15:05;0.95;;;0.43;;
46210;SDS011;52144;48.040;-1.594;2022-10-16T09:17:45;3.75;;;0.43;;
46210;SDS011;52144;48.040;-1.594;2022-10-16T09:20:24;2.92;;;0.40;;
46210;SDS011;52144;48.040;-1.594;2022-10-16T09:23:07;0.43;;;0.30;;
46210;SDS011;52144;48.040;-1.594;2022-10-16T09:25:42;0.88;;;0.35;;
46210;SDS011;52144;48.040;-1.594;2022-10-16T09:28:11;2.05;;;0.43;;
46210;SDS011;52144;48.040;-1.594;2022-10-16T09:30:41;1.77;;;0.50;;
46210;SDS011;52144;48.040;-1.594;2022-10-16T09:33:09;0.70;;;0.40;;
46210;SDS011;52144;48.040;-1.594;2022-10-16T09:35:39;9.35;;;0.52;;
46210;SDS011;52144;48.040;-1.594;2022-10-16T09:38:09;0.82;;;0.43;;
46210;SDS011;52144;48.040;-1.594;2022-10-16T09:40:48;0.30;;;0.30;;
46210;SDS011;52144;48.040;-1.594;2022-10-16T09:43:28;2.30;;;0.77;;
46210;SDS011;52144;48.040;-1.594;2022-10-16T09:46:04;1.40;;;0.55;;
46210;SDS011;52144;48.040;-1.594;2022-10-16T09:48:35;1.02;;;0.70;;
46210;SDS011;52144;48.040;-1.594;2022-10-16T09:51:06;0.52;;;0.30;;
46210;SDS011;52144;48.040;-1.594;2022-10-16T09:53:44;1.05;;;1.05;;
46210;SDS011;52144;48.040;-1.594;2022-10-16T09:56:21;1.20;;;0.70;;
46210;SDS011;52144;48.040;-1.594;2022-10-16T09:58:50;1.65;;;0.82;;
46210;SDS011;52144;48.040;-1.594;2022-10-16T10:01:21;4.32;;;0.40;;
46210;SDS011;52144;48.040;-1.594;2022-10-16T10:03:55;1.23;;;0.40;;
46210;SDS011;52144;48.040;-1.594;2022-10-16T10:06:28;3.95;;;0.68;;
46210;SDS011;52144;48.040;-1.594;2022-10-16T10:08:58;3.72;;;1.20;;
46210;SDS011;52144;48.040;-1.594;2022-10-16T10:11:45;0.52;;;0.32;;
46210;SDS011;52144;48.040;-1.594;2022-10-16T10:14:21;1.45;;;0.45;;
46210;SDS011;52144;48.040;-1.594;2022-10-16T10:17:01;0.80;;;0.35;;
46210;SDS011;52144;48.040;-1.594;2022-10-16T10:19:40;1.67;;;0.47;;
46210;SDS011;52144;48.040;-1.594;2022-10-16T10:25:00;3.88;;;0.75;;
46210;SDS011;52144;48.040;-1.594;2022-10-16T10:27:45;0.93;;;0.65;;
46210;SDS011;52144;48.040;-1.594;2022-10-16T10:30:24;0.50;;;0.47;;
46210;SDS011;52144;48.040;-1.594;2022-10-16T10:35:38;0.60;;;0.52;;
46210;SDS011;52144;48.040;-1.594;2022-10-16T10:38:16;0.75;;;0.30;;
46210;SDS011;52144;48.040;-1.594;2022-10-16T10:40:52;0.82;;;0.75;;
46210;SDS011;52144;48.040;-1.594;2022-10-16T10:43:37;1.17;;;0.80;;
46210;SDS011;52144;48.040;-1.594;2022-10-16T10:46:14;5.07;;;0.90;;
46210;SDS011;52144;48.040;-1.594;2022-10-16T10:51:45;1.65;;;0.43;;
46210;SDS011;52144;48.040;-1.594;2022-10-16T10:54:26;0.68;;;0.43;;
46210;SDS011;52144;48.040;-1.594;2022-10-16T10:57:01;5.25;;;0.73;;
46210;SDS011;52144;48.040;-1.594;2022-10-16T10:59:38;0.70;;;0.65;;
46210;SDS011;52144;48.040;-1.594;2022-10-16T11:02:22;2.08;;;1.10;;
46210;SDS011;52144;48.040;-1.594;2022-10-16T11:08:06;0.68;;;0.68;;
46210;SDS011;52144;48.040;-1.594;2022-10-16T11:10:41;1.02;;;0.70;;
46210;SDS011;52144;48.040;-1.594;2022-10-16T11:13:17;8.63;;;1.35;;
46210;SDS011;52144;48.040;-1.594;2022-10-16T11:15:51;3.10;;;1.17;;
46210;SDS011;52144;48.040;-1.594;2022-10-16T11:20:56;2.42;;;1.00;;
46210;SDS011;52144;48.040;-1.594;2022-10-16T11:23:28;3.00;;;2.15;;
46210;SDS011;52144;48.040;-1.594;2022-10-16T11:26:02;1.98;;;0.90;;
46210;SDS011;52144;48.040;-1.594;2022-10-16T11:28:37;1.08;;;0.60;;
46210;SDS011;52144;48.040;-1.594;2022-10-16T11:31:10;0.85;;;0.82;;
46210;SDS011;52144;48.040;-1.594;2022-10-16T11:33:42;0.55;;;0.55;;
46210;SDS011;52144;48.040;-1.594;2022-10-16T11:36:14;0.65;;;0.65;;
46210;SDS011;52144;48.040;-1.594;2022-10-16T11:38:50;1.70;;;1.27;;
46210;SDS011;52144;48.040;-1.594;2022-10-16T11:41:27;4.28;;;0.70;;
46210;SDS011;52144;48.040;-1.594;2022-10-16T11:44:03;3.25;;;0.70;;
46210;SDS011;52144;48.040;-1.594;2022-10-16T11:46:43;0.55;;;0.50;;
46210;SDS011;52144;48.040;-1.594;2022-10-16T11:49:36;0.47;;;0.47;;
46210;SDS011;52144;48.040;-1.594;2022-10-16T11:52:07;7.32;;;1.33;;
46210;SDS011;52144;48.040;-1.594;2022-10-16T11:54:45;0.88;;;0.65;;
46210;SDS011;52144;48.040;-1.594;2022-10-16T11:57:17;6.07;;;0.88;;
46210;SDS011;52144;48.040;-1.594;2022-10-16T11:59:51;1.20;;;1.15;;
46210;SDS011;52144;48.040;-1.594;2022-10-16T12:02:28;1.10;;;1.00;;
46210;SDS011;52144;48.040;-1.594;2022-10-16T12:05:05;2.95;;;1.20;;
46210;SDS011;52144;48.040;-1.594;2022-10-16T12:07:43;6.07;;;1.73;;
46210;SDS011;52144;48.040;-1.594;2022-10-16T12:10:22;4.90;;;1.30;;
46210;SDS011;52144;48.040;-1.594;2022-10-16T12:12:53;1.92;;;1.30;;
46210;SDS011;52144;48.040;-1.594;2022-10-16T12:15:23;3.30;;;1.50;;
46210;SDS011;52144;48.040;-1.594;2022-10-16T12:18:20;4.85;;;1.42;;
46210;SDS011;52144;48.040;-1.594;2022-10-16T12:20:54;2.70;;;1.20;;
46210;SDS011;52144;48.040;-1.594;2022-10-16T12:23:25;2.97;;;1.33;;
46210;SDS011;52144;48.040;-1.594;2022-10-16T12:25:57;1.20;;;0.70;;
46210;SDS011;52144;48.040;-1.594;2022-10-16T12:28:27;4.50;;;2.05;;
46210;SDS011;52144;48.040;-1.594;2022-10-16T12:30:56;2.72;;;0.82;;
46210;SDS011;52144;48.040;-1.594;2022-10-16T12:33:26;2.08;;;1.63;;
46210;SDS011;52144;48.040;-1.594;2022-10-16T12:35:55;2.63;;;1.13;;
46210;SDS011;52144;48.040;-1.594;2022-10-16T12:38:25;3.25;;;1.60;;
46210;SDS011;52144;48.040;-1.594;2022-10-16T12:40:57;5.95;;;1.42;;
46210;SDS011;52144;48.040;-1.594;2022-10-16T12:43:34;1.50;;;1.27;;
46210;SDS011;52144;48.040;-1.594;2022-10-16T12:46:05;2.88;;;1.33;;
46210;SDS011;52144;48.040;-1.594;2022-10-16T12:48:48;6.18;;;2.13;;
46210;SDS011;52144;48.040;-1.594;2022-10-16T12:51:34;1.10;;;1.00;;
46210;SDS011;52144;48.040;-1.594;2022-10-16T12:54:04;1.05;;;0.98;;
46210;SDS011;52144;48.040;-1.594;2022-10-16T12:56:44;1.67;;;1.17;;
46210;SDS011;52144;48.040;-1.594;2022-10-16T12:59:29;1.70;;;0.90;;
46210;SDS011;52144;48.040;-1.594;2022-10-16T13:02:16;3.47;;;1.35;;
46210;SDS011;52144;48.040;-1.594;2022-10-16T13:05:08;2.72;;;1.00;;
46210;SDS011;52144;48.040;-1.594;2022-10-16T13:07:53;3.15;;;1.33;;
46210;SDS011;52144;48.040;-1.594;2022-10-16T13:10:33;1.25;;;1.13;;
46210;SDS011;52144;48.040;-1.594;2022-10-16T13:13:15;2.50;;;1.23;;
46210;SDS011;52144;48.040;-1.594;2022-10-16T13:16:02;2.45;;;2.28;;
46210;SDS011;52144;48.040;-1.594;2022-10-16T13:18:43;1.23;;;1.00;;
46210;SDS011;52144;48.040;-1.594;2022-10-16T13:21:26;2.60;;;1.33;;
46210;SDS011;52144;48.040;-1.594;2022-10-16T13:24:02;1.27;;;0.80;;
46210;SDS011;52144;48.040;-1.594;2022-10-16T13:26:43;2.60;;;1.15;;
46210;SDS011;52144;48.040;-1.594;2022-10-16T13:29:17;1.45;;;0.73;;
46210;SDS011;52144;48.040;-1.594;2022-10-16T13:31:46;2.38;;;1.27;;
46210;SDS011;52144;48.040;-1.594;2022-10-16T13:34:15;2.00;;;1.27;;
46210;SDS011;52144;48.040;-1.594;2022-10-16T13:36:47;2.85;;;1.60;;
46210;SDS011;52144;48.040;-1.594;2022-10-16T13:39:20;3.83;;;1.40;;
46210;SDS011;52144;48.040;-1.594;2022-10-16T13:44:36;8.48;;;1.88;;
46210;SDS011;52144;48.040;-1.594;2022-10-16T13:47:14;4.85;;;1.15;;
46210;SDS011;52144;48.040;-1.594;2022-10-16T13:49:44;1.17;;;0.68;;
46210;SDS011;52144;48.040;-1.594;2022-10-16T13:52:16;2.30;;;0.95;;
46210;SDS011;52144;48.040;-1.594;2022-10-16T13:54:45;1.58;;;0.95;;
46210;SDS011;52144;48.040;-1.594;2022-10-16T13:57:14;0.65;;;0.65;;
46210;SDS011;52144;48.040;-1.594;2022-10-16T13:59:54;1.40;;;0.90;;
46210;SDS011;52144;48.040;-1.594;2022-10-16T14:02:22;5.78;;;0.77;;
46210;SDS011;52144;48.040;-1.594;2022-10-16T14:04:54;0.57;;;0.57;;
46210;SDS011;52144;48.040;-1.594;2022-10-16T14:07:25;3.38;;;0.63;;
46210;SDS011;52144;48.040;-1.594;2022-10-16T14:10:01;3.13;;;0.55;;
46210;SDS011;52144;48.040;-1.594;2022-10-16T14:12:32;0.95;;;0.68;;
46210;SDS011;52144;48.040;-1.594;2022-10-16T14:15:02;1.70;;;0.70;;
46210;SDS011;52144;48.040;-1.594;2022-10-16T14:17:30;0.45;;;0.45;;
46210;SDS011;52144;48.040;-1.594;2022-10-16T14:20:02;0.88;;;0.88;;
46210;SDS011;52144;48.040;-1.594;2022-10-16T14:22:33;1.33;;;0.63;;
46210;SDS011;52144;48.040;-1.594;2022-10-16T14:25:13;0.88;;;0.55;;
46210;SDS011;52144;48.040;-1.594;2022-10-16T14:27:59;0.73;;;0.43;;
46210;SDS011;52144;48.040;-1.594;2022-10-16T14:30:31;0.77;;;0.70;;
46210;SDS011;52144;48.040;-1.594;2022-10-16T14:33:01;1.25;;;0.90;;
46210;SDS011;52144;48.040;-1.594;2022-10-16T14:35:31;2.05;;;0.90;;
46210;SDS011;52144;48.040;-1.594;2022-10-16T14:38:01;0.50;;;0.50;;
46210;SDS011;52144;48.040;-1.594;2022-10-16T14:40:32;0.52;;;0.52;;
46210;SDS011;52144;48.040;-1.594;2022-10-16T14:43:02;0.75;;;0.70;;
46210;SDS011;52144;48.040;-1.594;2022-10-16T14:45:33;5.72;;;1.25;;
46210;SDS011;52144;48.040;-1.594;2022-10-16T14:48:04;1.67;;;0.70;;
46210;SDS011;52144;48.040;-1.594;2022-10-16T14:50:45;1.40;;;0.50;;
46210;SDS011;52144;48.040;-1.594;2022-10-16T14:53:13;7.72;;;0.95;;
46210;SDS011;52144;48.040;-1.594;2022-10-16T14:55:41;1.10;;;0.60;;
46210;SDS011;52144;48.040;-1.594;2022-10-16T14:58:10;0.68;;;0.68;;
46210;SDS011;52144;48.040;-1.594;2022-10-16T15:00:44;0.75;;;0.75;;
46210;SDS011;52144;48.040;-1.594;2022-10-16T15:03:12;0.60;;;0.60;;
46210;SDS011;52144;48.040;-1.594;2022-10-16T15:05:41;2.22;;;0.60;;
46210;SDS011;52144;48.040;-1.594;2022-10-16T15:08:08;0.47;;;0.38;;
46210;SDS011;52144;48.040;-1.594;2022-10-16T15:10:38;1.95;;;0.77;;
46210;SDS011;52144;48.040;-1.594;2022-10-16T15:13:08;0.82;;;0.80;;
46210;SDS011;52144;48.040;-1.594;2022-10-16T15:15:40;1.65;;;0.80;;
46210;SDS011;52144;48.040;-1.594;2022-10-16T15:18:12;0.82;;;0.82;;
46210;SDS011;52144;48.040;-1.594;2022-10-16T15:20:47;0.73;;;0.60;;